Decoded Metar for BIKF (KEFLAVIK in ICELAND) (IATA:KEF) | Meteo·Mobile Aviation Weather
aviador You're here:

BIKF Decoded Metar

KEFLAVIK in ICELAND
Report Time2019-01-18 14:00:00
UTC Time2019-01-18 14:21:43
Flight Rules vfr VFR
Wind130° at 14 kt
W.Decomp.*RWY 11: 11.3 kt HW 8.2 kt RCW
RWY 20: 8.2 kt HW 11.3 kt LCW
W.Rank130° ranks 4
Current wind is below 130° avg. (15.3)
Visibility9999 m
Phenomena:N/A
Clouds:Few 013 Hf
Scattered 019 Hf
Broken 033 Hf
Expected CloudBase > 400 ft AGL from Temp-Dew spread
Ceiling3,300 ft
Temp03°C (ISA -12)
Dew Point02°C (93% RH)
AAT-3.7°C
QNH1004 hPa
Density Alt-833 ft
Elevation177 ft
Report Wrong Elevation
Raw Report
METAR BIKF 181400Z 13014KT 9999 FEW013 SCT019 BKN033 03/02 Q1004=

Extra information for BIKF:More info

Metar Taf Metar & Taf Last 4 Metars F.Rules Stats Wind Profile Meteogram Temp Stats Airport Information Weather charts Add Link Nearby VenuesMetar ALERT Operation Metar Decoded Social comments